RJSC/GAJ METAR and TAF weather

Enter ICAO airport designator
Station Type Date Time Source
RJSC METAR 2019/02/17 07:22 UTC NOAA

RJSC 170722Z 26005KT 200V320 4000 -SHSN FEW005 SCT015 BKN030 02/M01 Q1015 RMK 1ST005 3CU015 6CU030 A2998


Station Type Date Time Source
RJSC Decoded METAR 2019/02/17 07:22 UTC NOAA

Yamagata Airport, Japan (RJSC) 38-25N 140-22E 108M
Feb 17, 2019 - 02:22 AM EST / 2019.02.17 0722 UTC
Wind: from the W (260 degrees) at 6 MPH (5 KT) (direction variable):0
Visibility: 2 mile(s):0
Sky conditions: mostly cloudy
Weather: light snow showers
Temperature: 35 F (2 C)
Windchill: 30 F (-1 C):1
Dew Point: 30 F (-1 C)
Relative Humidity: 80%
Pressure (altimeter): 29.97 in. Hg (1015 hPa)
ob: RJSC 170722Z 26005KT 200V320 4000 -SHSN FEW005 SCT015 BKN030 02/M01 Q1015 RMK 1ST005 3CU015 6CU030 A2998
cycle: 7

Station Type Date Time Source
RJSC TAF UTC NOAA

Error!


Example: see airport list